Time;durP1;ratioP1;P1;durP2;ratioP2;P2;SDS_P1;SDS_P2;PMS_P1;PMS_P2;Temp;Humidity;BMP_temperature;BMP_pressure;BME280_temperature;BME280_humidity;BME280_pressure;Samples;Min_cycle;Max_cycle;Signal;HPM_P1;HPM_P2
2022/12/31 00:00:03;;;;;;;;;0.25;0.25;;;;;11.15;93.99;100156.34;5072327;28;10230;-66
2022/12/31 00:02:30;;;;;;;;;0.00;0.00;;;;;11.13;94.24;100161.09;5072100;28;9524;-66
2022/12/31 00:04:57;;;;;;;;;1.50;1.50;;;;;11.16;94.06;100147.19;5071738;28;9365;-65
2022/12/31 00:07:23;;;;;;;;;1.75;1.50;;;;;11.17;94.01;100156.94;5072226;28;9502;-65
2022/12/31 00:09:50;;;;;;;;;0.00;0.00;;;;;11.18;93.91;100144.28;5070780;28;9438;-66
2022/12/31 00:12:16;;;;;;;;;0.00;0.00;;;;;11.19;93.77;100152.16;5072108;28;9501;-65
2022/12/31 00:14:42;;;;;;;;;0.00;0.00;;;;;11.24;94.02;100151.50;5071521;28;9523;-67
2022/12/31 00:17:09;;;;;;;;;0.75;0.75;;;;;11.26;93.51;100154.81;5071760;28;9439;-65
2022/12/31 00:19:36;;;;;;;;;0.00;0.00;;;;;11.28;93.46;100150.03;5071900;28;10186;-65
2022/12/31 00:22:02;;;;;;;;;0.00;0.00;;;;;11.27;93.25;100162.69;5071682;28;9526;-66
2022/12/31 00:24:29;;;;;;;;;0.00;0.00;;;;;11.29;93.21;100168.69;5071356;28;9542;-66
2022/12/31 00:26:56;;;;;;;;;0.00;0.00;;;;;11.26;93.04;100169.13;5070643;28;9442;-66
2022/12/31 00:29:22;;;;;;;;;0.50;0.25;;;;;11.21;92.92;100190.47;5071624;28;9435;-66
2022/12/31 00:31:49;;;;;;;;;0.00;0.00;;;;;11.15;93.00;100183.28;5071713;28;9519;-66
2022/12/31 00:34:15;;;;;;;;;0.00;0.00;;;;;11.15;93.37;100185.97;5070936;28;9754;-64
2022/12/31 00:36:44;;;;;;;;;0.00;0.00;;;;;11.09;93.59;100176.84;5071372;28;9425;-65
2022/12/31 00:39:11;;;;;;;;;1.00;0.00;;;;;11.12;93.06;100186.38;5071365;28;9630;-66
2022/12/31 00:41:37;;;;;;;;;0.00;0.00;;;;;11.14;93.01;100187.00;5071383;28;9446;-64
2022/12/31 00:44:04;;;;;;;;;0.00;0.00;;;;;11.13;92.79;100185.34;5069832;28;9526;-66
2022/12/31 00:46:31;;;;;;;;;0.00;0.00;;;;;11.16;92.80;100184.09;5071147;28;10277;-66
2022/12/31 00:48:57;;;;;;;;;0.50;0.00;;;;;11.13;92.68;100175.38;5071056;28;9372;-66
2022/12/31 00:51:26;;;;;;;;;1.00;0.00;;;;;11.15;92.47;100175.19;5070972;28;10009;-66
2022/12/31 00:53:54;;;;;;;;;0.00;0.00;;;;;11.11;92.67;100168.56;5070974;28;9514;-66
2022/12/31 00:56:23;;;;;;;;;1.00;1.00;;;;;11.14;92.34;100177.06;5070938;28;10106;-64
2022/12/31 00:58:50;;;;;;;;;0.00;0.00;;;;;11.14;92.27;100170.84;5070918;28;10189;-64
2022/12/31 01:01:37;;;;;;;;;0.00;0.00;;;;;11.10;92.13;100166.91;5070941;28;9469;-63
2022/12/31 01:04:09;;;;;;;;;0.67;0.00;;;;;11.10;92.18;100172.28;5070529;28;9461;-65
2022/12/31 01:06:36;;;;;;;;;0.00;0.00;;;;;11.10;92.47;100172.28;5070829;28;9373;-65
2022/12/31 01:09:04;;;;;;;;;0.00;0.00;;;;;11.11;92.44;100169.41;5070786;28;9553;-65
2022/12/31 01:11:30;;;;;;;;;1.00;0.00;;;;;11.12;91.94;100175.59;5070660;28;9433;-65
2022/12/31 01:14:07;;;;;;;;;0.00;0.00;;;;;11.13;92.48;100188.03;5070425;28;9373;-66
2022/12/31 01:16:40;;;;;;;;;0.00;0.00;;;;;11.17;92.03;100180.34;5070581;28;9505;-65
2022/12/31 01:19:09;;;;;;;;;0.25;0.25;;;;;11.18;92.10;100180.16;5070558;28;9569;-64
2022/12/31 01:21:38;;;;;;;;;0.00;0.00;;;;;11.20;91.88;100179.94;5070580;28;9715;-63
2022/12/31 01:24:06;;;;;;;;;0.75;0.00;;;;;11.24;92.12;100175.75;5070885;28;9496;-66
2022/12/31 01:26:32;;;;;;;;;0.00;0.00;;;;;11.21;91.94;100176.19;5070607;28;9572;-67
2022/12/31 01:28:58;;;;;;;;;1.00;0.00;;;;;11.23;92.05;100179.50;5070749;28;9821;-67
2022/12/31 01:31:25;;;;;;;;;0.00;0.00;;;;;11.24;92.01;100175.75;5070854;28;9654;-69
2022/12/31 01:33:52;;;;;;;;;2.75;1.00;;;;;11.24;91.96;100167.69;5070374;28;9527;-66
2022/12/31 01:36:22;;;;;;;;;1.25;0.00;;;;;11.26;92.08;100171.81;5070280;28;9464;-67
2022/12/31 01:38:53;;;;;;;;;0.00;0.00;;;;;11.25;92.01;100175.53;5070492;28;9529;-65
2022/12/31 01:41:29;;;;;;;;;0.00;0.00;;;;;11.27;91.92;100175.34;5070635;28;9383;-66
2022/12/31 01:44:20;;;;;;;;;0.00;0.00;;;;;11.26;91.82;100177.22;5070448;28;9438;-66
2022/12/31 01:46:50;;;;;;;;;1.50;0.00;;;;;11.25;91.87;100177.41;5059798;28;9370;-66
2022/12/31 01:49:44;;;;;;;;;0.00;0.00;;;;;11.23;91.78;100180.31;5070748;28;10074;-66
2022/12/31 01:52:49;;;;;;;;;1.00;1.00;;;;;11.23;91.79;100166.84;5070365;28;9616;-66
2022/12/31 01:55:22;;;;;;;;;1.00;1.00;;;;;11.22;91.83;100172.44;5038778;28;9378;-66
2022/12/31 01:57:54;;;;;;;;;0.75;0.00;;;;;11.24;92.08;100175.75;5070392;28;9484;-66
2022/12/31 02:00:20;;;;;;;;;0.25;0.25;;;;;11.23;92.05;100177.63;5072465;28;9437;-65
2022/12/31 02:02:47;;;;;;;;;0.00;0.00;;;;;11.21;91.99;100174.31;5070863;28;9380;-66
2022/12/31 02:05:24;;;;;;;;;2.00;0.00;;;;;11.22;92.04;100167.06;5070739;28;9566;-66
2022/12/31 02:07:53;;;;;;;;;2.75;0.00;;;;;11.23;91.93;100166.84;5070648;28;9458;-66
2022/12/31 02:10:19;;;;;;;;;1.50;0.00;;;;;11.24;92.07;100157.72;5070663;28;9581;-66
2022/12/31 02:12:47;;;;;;;;;0.25;0.00;;;;;11.26;92.01;100168.28;5070309;28;9438;-68
2022/12/31 02:15:13;;;;;;;;;0.00;0.00;;;;;11.23;91.79;100166.03;5069742;28;9444;-66
2022/12/31 02:17:40;;;;;;;;;0.00;0.00;;;;;11.22;91.92;100165.22;5070125;28;10161;-66
2022/12/31 02:20:25;;;;;;;;;0.00;0.00;;;;;11.23;92.01;100174.94;5070247;28;9423;-66
2022/12/31 02:23:09;;;;;;;;;0.00;0.00;;;;;11.23;91.74;100185.72;5070438;28;9634;-65
2022/12/31 02:25:39;;;;;;;;;0.75;0.75;;;;;11.22;91.99;100183.22;5070891;28;9581;-66
2022/12/31 02:28:24;;;;;;;;;0.00;0.00;;;;;11.21;91.69;100174.31;5070148;28;9526;-66
2022/12/31 02:30:59;;;;;;;;;0.75;0.25;;;;;11.18;91.95;100176.59;5070914;28;9555;-66
2022/12/31 02:33:31;;;;;;;;;0.75;0.25;;;;;11.18;91.86;100180.16;5071371;28;9505;-66
2022/12/31 02:36:03;;;;;;;;;1.50;1.00;;;;;11.15;92.06;100175.19;5070299;28;9771;-66
2022/12/31 02:38:34;;;;;;;;;1.00;1.00;;;;;11.18;92.21;100185.53;5071185;28;9564;-66
2022/12/31 02:41:00;;;;;;;;;0.50;0.00;;;;;11.14;92.21;100178.94;5070350;28;9558;-66
2022/12/31 02:43:27;;;;;;;;;1.00;1.00;;;;;11.16;92.51;100178.69;5069801;28;9629;-66
2022/12/31 02:46:14;;;;;;;;;1.00;1.00;;;;;11.14;92.27;100173.53;5069359;28;9518;-65
2022/12/31 02:49:09;;;;;;;;;1.75;1.75;;;;;11.21;92.22;100173.50;5069735;28;9684;-67
2022/12/31 02:52:02;;;;;;;;;1.00;0.75;;;;;11.23;92.12;100166.84;5069668;28;9646;-66
2022/12/31 02:54:39;;;;;;;;;2.00;2.00;;;;;11.21;92.12;100173.50;5069650;28;9512;-67
2022/12/31 02:57:20;;;;;;;;;1.75;1.00;;;;;11.20;92.00;100178.06;5070773;28;9629;-67
2022/12/31 03:02:44;;;;;;;;;1.00;1.00;;;;;11.24;92.06;100184.66;5070299;28;9548;-67
2022/12/31 03:05:14;;;;;;;;;1.00;1.00;;;;;11.19;91.96;100170.19;5070197;28;9614;-67
2022/12/31 03:07:42;;;;;;;;;0.00;0.00;;;;;11.21;92.32;100186.97;5070952;28;9682;-67
2022/12/31 03:10:09;;;;;;;;;1.00;1.00;;;;;11.19;92.05;100194.44;5073405;28;9587;-67
2022/12/31 03:12:45;;;;;;;;;1.00;1.00;;;;;11.21;92.25;100197.72;5073815;28;9664;-67
2022/12/31 03:15:19;;;;;;;;;1.00;1.00;;;;;11.17;91.98;100205.41;5072711;28;9729;-65
2022/12/31 03:17:52;;;;;;;;;1.00;1.00;;;;;11.14;92.10;100204.00;5073029;28;9765;-66
2022/12/31 03:23:09;;;;;;;;;0.00;0.00;;;;;11.11;92.25;100203.59;5072720;28;9736;-66
2022/12/31 03:25:37;;;;;;;;;1.00;0.00;;;;;11.09;92.29;100197.56;5072563;28;9682;-66
2022/12/31 03:28:07;;;;;;;;;1.25;1.00;;;;;11.06;92.20;100203.38;5071359;28;9682;-66
2022/12/31 03:30:35;;;;;;;;;0.75;0.75;;;;;11.01;92.35;100203.19;5072530;28;9741;-66
2022/12/31 03:33:04;;;;;;;;;2.00;2.00;;;;;11.01;92.52;100208.59;5072380;28;9504;-66
2022/12/31 03:35:33;;;;;;;;;1.25;1.25;;;;;11.02;92.25;100194.94;5071065;28;10362;-67
2022/12/31 03:38:00;;;;;;;;;2.00;1.75;;;;;11.05;92.50;100204.44;5072832;28;9802;-66
2022/12/31 03:40:28;;;;;;;;;3.50;2.75;;;;;11.01;92.25;100204.03;5072557;28;9668;-66
2022/12/31 03:42:55;;;;;;;;;2.50;1.75;;;;;10.94;92.29;100203.25;5072238;28;9775;-65
2022/12/31 03:45:22;;;;;;;;;1.50;1.50;;;;;10.94;92.78;100205.09;5071944;28;9868;-67
2022/12/31 03:47:49;;;;;;;;;2.50;1.00;;;;;10.94;92.56;100202.38;5072196;28;9701;-67
2022/12/31 03:50:17;;;;;;;;;0.25;0.25;;;;;10.97;92.29;100191.19;5072233;28;9589;-67
2022/12/31 03:52:44;;;;;;;;;1.25;0.25;;;;;10.88;92.50;100193.31;5072260;28;9569;-66
2022/12/31 03:55:10;;;;;;;;;1.00;1.00;;;;;10.89;92.51;100173.41;5072042;28;10493;-66
2022/12/31 03:57:38;;;;;;;;;1.75;0.00;;;;;10.84;92.72;100160.59;5072191;28;9498;-66
2022/12/31 04:00:07;;;;;;;;;0.75;0.75;;;;;10.86;92.58;100163.91;5072179;28;9439;-66
2022/12/31 04:02:34;;;;;;;;;0.50;0.50;;;;;10.89;92.64;100154.56;5072079;28;9637;-66
2022/12/31 04:05:00;;;;;;;;;0.00;0.00;;;;;10.92;92.43;100164.09;5071982;28;9609;-66
2022/12/31 04:07:28;;;;;;;;;0.00;0.00;;;;;10.90;92.27;100156.25;5071960;28;9532;-66
2022/12/31 04:09:54;;;;;;;;;1.00;1.00;;;;;10.85;92.33;100167.63;5072216;28;10342;-66
2022/12/31 04:12:21;;;;;;;;;2.00;1.00;;;;;10.90;92.34;100164.31;5071880;28;9670;-66
2022/12/31 04:14:47;;;;;;;;;1.00;0.50;;;;;10.86;91.94;100166.59;5071472;28;9626;-66
2022/12/31 04:17:14;;;;;;;;;2.00;0.00;;;;;10.81;91.98;100166.38;5071872;28;9521;-65
2022/12/31 04:19:40;;;;;;;;;0.75;0.75;;;;;10.83;91.80;100169.72;5071651;28;10431;-65
2022/12/31 04:22:07;;;;;;;;;2.50;0.50;;;;;10.87;91.60;100156.66;5072097;28;10355;-66
2022/12/31 04:24:33;;;;;;;;;1.00;0.50;;;;;10.84;91.66;100157.06;5071244;28;9698;-66
2022/12/31 04:27:00;;;;;;;;;1.50;0.00;;;;;10.77;91.25;100161.66;5071621;28;9675;-66
2022/12/31 04:29:34;;;;;;;;;3.00;1.00;;;;;10.74;91.64;100168.31;5071587;28;9591;-68
2022/12/31 04:32:00;;;;;;;;;0.00;0.00;;;;;10.76;91.42;100166.22;5071429;28;9653;-64
2022/12/31 04:34:27;;;;;;;;;0.00;0.00;;;;;10.73;91.56;100174.69;5071004;28;9886;-66
2022/12/31 04:36:53;;;;;;;;;0.00;0.00;;;;;10.75;91.51;100187.97;5071847;28;10592;-65
2022/12/31 04:39:20;;;;;;;;;0.50;0.00;;;;;10.69;91.25;100195.00;5071707;28;9672;-66
2022/12/31 04:41:46;;;;;;;;;0.00;0.00;;;;;10.66;91.56;100190.06;5071414;28;9582;-66
2022/12/31 04:44:13;;;;;;;;;0.00;0.00;;;;;10.66;91.43;100183.84;5070886;28;9798;-65
2022/12/31 04:46:39;;;;;;;;;0.00;0.00;;;;;10.62;91.26;100184.28;5071177;28;9733;-66
2022/12/31 04:49:06;;;;;;;;;0.50;0.00;;;;;10.59;91.43;100191.94;5071210;28;10488;-66
2022/12/31 04:51:33;;;;;;;;;1.25;1.00;;;;;10.62;91.57;100195.03;5071119;28;9657;-65
2022/12/31 04:54:00;;;;;;;;;3.00;2.00;;;;;10.63;91.37;100187.78;5071144;28;9890;-66
2022/12/31 04:56:27;;;;;;;;;1.00;1.00;;;;;10.60;91.02;100199.78;5070814;28;10658;-67
2022/12/31 04:58:54;;;;;;;;;1.00;1.00;;;;;10.62;91.33;100191.53;5071410;28;9784;-67
2022/12/31 05:01:21;;;;;;;;;3.25;3.00;;;;;10.60;91.18;100189.03;5070892;28;9735;-67
2022/12/31 05:03:48;;;;;;;;;4.00;2.00;;;;;10.59;91.66;100189.25;5070725;28;10137;-67
2022/12/31 05:06:17;;;;;;;;;5.50;3.75;;;;;10.61;91.47;100189.84;5070549;28;9900;-67
2022/12/31 05:08:43;;;;;;;;;1.00;1.00;;;;;10.64;91.48;100184.88;5070638;28;10097;-67
2022/12/31 05:11:10;;;;;;;;;6.50;4.75;;;;;10.64;91.48;100192.94;5071110;28;9905;-66
2022/12/31 05:13:37;;;;;;;;;6.75;5.25;;;;;10.67;91.41;100186.31;5070572;28;9972;-66
2022/12/31 05:16:05;;;;;;;;;4.50;4.50;;;;;10.69;91.38;100186.09;5070324;28;10073;-66
2022/12/31 05:18:32;;;;;;;;;6.25;6.25;;;;;10.63;91.32;100182.41;5070518;28;10269;-67
2022/12/31 05:20:59;;;;;;;;;3.25;3.25;;;;;10.63;91.35;100185.91;5070542;28;10403;-67
2022/12/31 05:23:26;;;;;;;;;4.50;4.50;;;;;10.63;91.39;100191.31;5070328;28;10340;-65
2022/12/31 05:25:53;;;;;;;;;6.00;6.00;;;;;10.68;91.61;100195.22;5070325;28;10839;-66
2022/12/31 05:28:20;;;;;;;;;7.25;7.25;;;;;10.70;91.68;100193.16;5070326;28;10159;-67
2022/12/31 05:30:48;;;;;;;;;6.75;6.75;;;;;10.62;91.33;100191.53;5069742;28;10052;-67
2022/12/31 05:33:16;;;;;;;;;10.00;8.00;;;;;10.63;91.84;100191.31;5070489;28;10046;-67
2022/12/31 05:35:44;;;;;;;;;6.25;6.00;;;;;10.61;92.04;100195.22;5070105;28;10303;-67
2022/12/31 05:38:11;;;;;;;;;6.00;5.25;;;;;10.63;92.08;100195.88;5070557;28;10035;-65
2022/12/31 05:40:37;;;;;;;;;6.25;6.25;;;;;10.66;92.16;100190.06;5070719;28;9977;-66
2022/12/31 05:43:03;;;;;;;;;5.75;5.75;;;;;10.66;92.10;100194.63;5070366;28;10059;-67
2022/12/31 05:45:30;;;;;;;;;10.75;6.75;;;;;10.69;92.25;100195.00;5070214;28;10017;-66
2022/12/31 05:47:57;;;;;;;;;3.00;3.00;;;;;10.69;91.96;100192.31;5070429;28;10087;-66
2022/12/31 05:50:24;;;;;;;;;5.75;5.00;;;;;10.73;91.76;100190.84;5070276;28;9831;-66
2022/12/31 05:52:55;;;;;;;;;4.50;3.50;;;;;10.77;91.85;100181.31;5069998;28;9909;-67
2022/12/31 05:55:21;;;;;;;;;2.75;2.75;;;;;10.73;91.46;100185.47;5069805;28;10023;-67
2022/12/31 05:57:48;;;;;;;;;4.50;2.75;;;;;10.73;91.75;100187.34;5070032;28;9907;-67
2022/12/31 06:00:15;;;;;;;;;2.00;2.00;;;;;10.78;91.89;100187.56;5070122;28;9943;-63
2022/12/31 06:02:41;;;;;;;;;5.00;4.00;;;;;10.75;91.34;100186.09;5069966;28;10548;-65
2022/12/31 06:05:08;;;;;;;;;2.00;2.00;;;;;10.75;91.92;100182.59;5069912;28;10550;-66
2022/12/31 06:07:35;;;;;;;;;4.00;4.00;;;;;10.72;91.76;100177.63;5070238;28;9841;-65
2022/12/31 06:10:03;;;;;;;;;2.25;2.25;;;;;10.72;91.63;100175.75;5070098;28;9933;-66
2022/12/31 06:12:30;;;;;;;;;4.50;3.00;;;;;10.74;91.57;100178.25;5070103;28;9905;-66
2022/12/31 06:14:56;;;;;;;;;3.00;2.50;;;;;10.72;92.07;100174.94;5069925;28;9912;-68
2022/12/31 06:17:23;;;;;;;;;3.00;3.00;;;;;10.72;92.11;100183.00;5070074;28;9811;-67
2022/12/31 06:19:49;;;;;;;;;2.00;2.00;;;;;10.73;91.94;100190.84;5069959;28;9663;-65
2022/12/31 06:22:15;;;;;;;;;2.50;1.75;;;;;10.78;92.12;100188.38;5069826;28;9950;-66
2022/12/31 06:24:42;;;;;;;;;3.50;3.00;;;;;10.80;92.02;100188.97;5069583;28;9682;-67
2022/12/31 06:27:08;;;;;;;;;2.00;2.00;;;;;10.79;92.03;100192.72;5070568;28;9841;-65
2022/12/31 06:29:35;;;;;;;;;2.25;2.00;;;;;10.80;91.75;100196.22;5073061;28;9929;-65
2022/12/31 06:32:02;;;;;;;;;4.50;1.50;;;;;10.80;91.69;100190.84;5070943;28;9921;-65
2022/12/31 06:34:28;;;;;;;;;4.75;2.75;;;;;10.79;91.86;100198.09;5069329;28;9749;-67
2022/12/31 06:36:54;;;;;;;;;2.00;2.00;;;;;10.82;91.91;100192.31;5069903;28;9904;-66
2022/12/31 06:39:21;;;;;;;;;6.25;6.25;;;;;10.83;92.06;100202.03;5070078;28;9718;-67
2022/12/31 06:41:47;;;;;;;;;6.00;6.00;;;;;10.82;92.03;100194.16;5071207;28;9826;-67
2022/12/31 06:44:14;;;;;;;;;4.00;4.00;;;;;10.84;92.36;100192.91;5073118;28;9783;-65
2022/12/31 06:46:41;;;;;;;;;4.75;4.75;;;;;10.88;91.75;100186.06;5073322;28;9979;-66
2022/12/31 06:49:08;;;;;;;;;4.00;4.00;;;;;10.91;91.94;100192.06;5073328;28;9741;-66
2022/12/31 06:51:34;;;;;;;;;5.75;5.00;;;;;10.92;91.91;100194.53;5073137;28;9827;-67
2022/12/31 06:54:00;;;;;;;;;5.75;5.75;;;;;10.93;92.06;100184.59;5072833;28;9828;-66
2022/12/31 06:56:28;;;;;;;;;5.25;5.25;;;;;10.93;92.43;100192.66;5072880;28;9899;-66
2022/12/31 06:59:00;;;;;;;;;6.25;4.50;;;;;10.98;92.62;100192.84;5073224;28;10107;-67
2022/12/31 07:01:51;;;;;;;;;6.50;6.00;;;;;10.97;92.40;100189.31;5072896;28;9825;-65
2022/12/31 07:04:47;;;;;;;;;6.00;5.25;;;;;11.01;92.57;100187.03;5072678;28;10041;-67
2022/12/31 07:07:37;;;;;;;;;6.00;6.00;;;;;11.07;92.83;100188.91;5072963;28;9829;-66
2022/12/31 07:10:41;;;;;;;;;5.50;3.00;;;;;11.12;92.91;100199.84;5072828;28;9898;-66
2022/12/31 07:13:22;;;;;;;;;6.00;6.00;;;;;11.18;93.07;100187.38;5073145;28;9906;-66
2022/12/31 07:16:23;;;;;;;;;4.00;4.00;;;;;11.21;93.33;100193.16;5072598;28;9820;-66
2022/12/31 07:19:01;;;;;;;;;5.00;5.00;;;;;11.26;93.57;100193.38;5072827;28;9843;-66
2022/12/31 07:21:38;;;;;;;;;4.50;4.50;;;;;11.29;93.90;100187.53;5072798;28;9897;-66
2022/12/31 07:24:08;;;;;;;;;4.00;4.00;;;;;11.37;94.45;100181.91;5073028;28;9912;-67
2022/12/31 07:27:06;;;;;;;;;4.50;4.50;;;;;11.45;94.25;100183.50;5072889;28;9942;-65
2022/12/31 07:29:45;;;;;;;;;3.00;3.00;;;;;11.52;94.51;100191.56;5072598;28;9783;-67
2022/12/31 07:32:36;;;;;;;;;2.25;2.25;;;;;11.58;94.07;100199.59;5072807;28;9591;-65
2022/12/31 07:35:15;;;;;;;;;3.50;3.50;;;;;11.60;94.18;100202.91;5072218;28;9656;-66
2022/12/31 07:37:56;;;;;;;;;2.50;2.50;;;;;11.64;94.40;100201.44;5072579;28;9522;-65
2022/12/31 07:40:52;;;;;;;;;1.75;1.00;;;;;11.63;94.56;100202.50;5072596;28;9561;-66
2022/12/31 07:43:33;;;;;;;;;1.25;1.25;;;;;11.68;94.95;100209.94;5072207;28;9551;-67
2022/12/31 07:46:23;;;;;;;;;2.00;2.00;;;;;11.73;94.97;100203.88;5072157;28;9518;-65
2022/12/31 07:48:50;;;;;;;;;1.00;1.00;;;;;11.76;95.15;100212.38;5072393;28;9605;-66
2022/12/31 07:51:17;;;;;;;;;2.00;2.00;;;;;11.76;95.10;100209.66;5072342;28;9372;-66
2022/12/31 07:53:43;;;;;;;;;0.00;0.00;;;;;11.85;95.34;100226.44;5071407;28;9546;-67
2022/12/31 07:56:09;;;;;;;;;0.00;0.00;;;;;11.84;94.97;100219.41;5072212;28;9412;-67
2022/12/31 07:58:39;;;;;;;;;0.33;0.33;;;;;11.82;95.17;100210.66;5072322;28;9283;-68
2022/12/31 08:01:10;;;;;;;;;0.00;0.00;;;;;11.86;95.43;100228.09;5072257;28;9298;-66
2022/12/31 08:03:46;;;;;;;;;0.00;0.00;;;;;11.88;95.38;100221.44;5072040;28;9319;-67
2022/12/31 08:06:45;;;;;;;;;0.33;0.00;;;;;11.88;95.56;100226.00;5071654;28;9455;-67
2022/12/31 08:09:44;;;;;;;;;0.00;0.00;;;;;11.91;95.34;100224.72;5047341;28;9349;-67
2022/12/31 08:12:11;;;;;;;;;0.00;0.00;;;;;11.90;96.01;100225.78;5071691;28;9233;-67
2022/12/31 08:14:46;;;;;;;;;0.00;0.00;;;;;11.94;95.72;100225.13;5071781;28;9162;-68
2022/12/31 08:17:15;;;;;;;;;2.00;0.00;;;;;11.97;95.83;100234.66;5071880;28;9259;-65
2022/12/31 08:19:42;;;;;;;;;0.00;0.00;;;;;11.98;95.62;100236.31;5071853;28;9215;-67
2022/12/31 08:22:38;;;;;;;;;0.00;0.00;;;;;11.99;95.36;100243.34;5071746;28;9362;-66
2022/12/31 08:25:26;;;;;;;;;0.00;0.00;;;;;11.99;95.21;100248.75;5065661;28;9323;-66
2022/12/31 08:27:59;;;;;;;;;0.00;0.00;;;;;12.02;95.49;100259.09;5071744;28;9353;-66
2022/12/31 08:30:56;;;;;;;;;0.00;0.00;;;;;11.91;94.78;100249.88;5071716;28;9390;-67
2022/12/31 08:33:35;;;;;;;;;0.33;0.00;;;;;11.91;95.36;100262.50;5071733;28;9232;-66
2022/12/31 08:36:46;;;;;;;;;0.00;0.00;;;;;11.92;95.14;100226.41;5071304;28;9274;-67
2022/12/31 08:39:50;;;;;;;;;0.00;0.00;;;;;11.90;95.33;100264.38;5071382;28;9353;-67
2022/12/31 08:42:40;;;;;;;;;0.00;0.00;;;;;11.95;94.90;100261.00;5071652;28;9218;-68
2022/12/31 08:45:18;;;;;;;;;0.00;0.00;;;;;11.96;94.75;100231.16;5071115;28;10004;-68
2022/12/31 08:47:57;;;;;;;;;0.00;0.00;;;;;11.86;94.62;100255.06;5071220;28;9357;-68
2022/12/31 08:50:26;;;;;;;;;0.00;0.00;;;;;11.81;94.87;100265.66;5071360;28;9224;-68
2022/12/31 08:52:53;;;;;;;;;0.00;0.00;;;;;11.86;94.55;100261.28;5070984;28;9298;-69
2022/12/31 08:55:20;;;;;;;;;0.00;0.00;;;;;11.80;94.25;100262.13;5070720;28;9286;-68
2022/12/31 08:58:17;;;;;;;;;0.00;0.00;;;;;11.81;93.83;100266.47;5071156;28;9369;-67
2022/12/31 09:00:47;;;;;;;;;1.67;0.00;;;;;11.86;93.83;100290.94;5071099;28;9280;-66
2022/12/31 09:03:16;;;;;;;;;0.33;0.33;;;;;11.89;93.70;100292.38;5070789;28;9262;-67
2022/12/31 09:05:51;;;;;;;;;0.00;0.00;;;;;11.96;93.35;100300.44;5069586;28;9264;-68
2022/12/31 09:08:43;;;;;;;;;0.00;0.00;;;;;12.08;92.38;100304.94;5071065;28;9227;-66
2022/12/31 09:11:17;;;;;;;;;0.00;0.00;;;;;12.04;92.29;100308.28;5069501;28;9288;-67
2022/12/31 09:14:39;;;;;;;;;0.00;0.00;;;;;12.08;92.41;100296.03;5070579;28;9308;-67
2022/12/31 09:17:18;;;;;;;;;0.00;0.00;;;;;12.11;92.49;100311.75;5008683;28;9169;-65
2022/12/31 09:19:44;;;;;;;;;0.00;0.00;;;;;12.20;91.95;100326.66;5008584;28;9178;-66
2022/12/31 09:22:11;;;;;;;;;1.67;0.00;;;;;12.24;91.91;100333.28;5047995;28;9389;-67
2022/12/31 09:24:37;;;;;;;;;2.00;0.00;;;;;12.28;91.76;100322.88;5070066;28;9219;-67
2022/12/31 09:27:16;;;;;;;;;1.00;0.00;;;;;12.36;91.51;100336.94;5070541;28;9404;-67
2022/12/31 09:29:57;;;;;;;;;0.67;0.67;;;;;12.40;91.44;100355.34;5070479;28;9989;-66
2022/12/31 09:32:49;;;;;;;;;0.00;0.00;;;;;12.44;91.85;100351.22;5070258;28;9212;-67
2022/12/31 09:35:32;;;;;;;;;0.00;0.00;;;;;12.44;91.77;100332.31;5070029;28;9239;-65
2022/12/31 09:38:11;;;;;;;;;0.00;0.00;;;;;12.47;91.68;100339.94;5070306;28;9151;-65
2022/12/31 09:40:43;;;;;;;;;1.00;1.00;;;;;12.41;92.31;100352.47;5070430;28;9284;-69
2022/12/31 09:43:47;;;;;;;;;0.00;0.00;;;;;12.52;91.74;100353.66;5070246;28;9292;-66
2022/12/31 09:47:10;;;;;;;;;0.00;0.00;;;;;12.60;91.55;100347.97;5069155;28;9246;-66
2022/12/31 09:49:48;;;;;;;;;0.67;0.00;;;;;12.59;91.90;100357.09;5008200;28;9324;-68
2022/12/31 09:52:31;;;;;;;;;0.00;0.00;;;;;12.58;91.42;100350.06;5070056;28;9324;-66
2022/12/31 09:55:22;;;;;;;;;0.00;0.00;;;;;12.60;92.27;100350.69;5070011;28;9346;-67
2022/12/31 09:58:04;;;;;;;;;0.00;0.00;;;;;12.60;91.76;100345.28;5069924;28;9184;-65
2022/12/31 10:00:51;;;;;;;;;0.00;0.00;;;;;12.48;92.39;100344.31;5070073;28;9423;-67
2022/12/31 10:03:56;;;;;;;;;0.00;0.00;;;;;12.59;91.89;100341.72;5070134;28;9944;-67
2022/12/31 10:06:42;;;;;;;;;3.67;3.67;;;;;12.63;91.88;100351.03;5069821;28;9136;-67
2022/12/31 10:09:36;;;;;;;;;1.00;1.00;;;;;12.57;92.22;100367.31;5070370;28;9318;-67
2022/12/31 10:12:21;;;;;;;;;0.00;0.00;;;;;12.49;93.00;100389.16;5070126;28;9279;-67
2022/12/31 10:15:23;;;;;;;;;0.00;0.00;;;;;12.52;93.27;100383.34;5069940;28;9150;-68
2022/12/31 10:18:10;;;;;;;;;0.33;0.33;;;;;12.61;93.63;100382.03;5073209;28;9140;-67
2022/12/31 10:20:46;;;;;;;;;1.67;1.00;;;;;12.65;93.28;100385.13;5073851;28;9222;-67
2022/12/31 10:23:46;;;;;;;;;0.00;0.00;;;;;12.68;93.03;100382.81;5074055;28;9308;-67
2022/12/31 10:26:21;;;;;;;;;0.00;0.00;;;;;12.73;92.87;100379.44;5073727;28;9200;-67
2022/12/31 10:29:25;;;;;;;;;1.00;1.00;;;;;12.70;92.95;100388.81;5073975;28;9295;-67
2022/12/31 10:32:13;;;;;;;;;4.67;2.00;;;;;12.70;93.25;100379.88;5073440;28;9227;-67
2022/12/31 10:35:11;;;;;;;;;1.33;1.33;;;;;12.71;93.66;100378.81;5073147;28;10076;-67
2022/12/31 10:38:03;;;;;;;;;2.67;2.00;;;;;12.80;93.33;100369.38;5073519;28;9135;-66
2022/12/31 10:40:48;;;;;;;;;1.00;1.00;;;;;12.78;93.25;100380.44;5073453;28;9131;-66
2022/12/31 10:44:02;;;;;;;;;2.00;1.67;;;;;12.85;93.72;100383.09;5073550;28;9423;-66
2022/12/31 10:47:12;;;;;;;;;2.00;2.00;;;;;12.90;93.27;100382.41;5073444;28;9237;-65
2022/12/31 10:49:57;;;;;;;;;3.00;3.00;;;;;12.99;92.68;100384.63;5073634;28;9307;-65
2022/12/31 10:52:58;;;;;;;;;1.33;1.33;;;;;13.03;92.19;100393.09;5073250;28;9303;-66
2022/12/31 10:55:41;;;;;;;;;3.00;3.00;;;;;13.07;92.29;100386.22;5073301;28;9299;-66
2022/12/31 10:58:13;;;;;;;;;2.67;2.67;;;;;13.05;92.11;100402.66;5073323;28;9258;-66
2022/12/31 11:01:04;;;;;;;;;1.67;1.67;;;;;13.07;92.05;100387.03;5073372;28;9365;-66
2022/12/31 11:03:34;;;;;;;;;4.00;4.00;;;;;13.07;91.90;100403.25;5073286;28;9372;-66
2022/12/31 11:06:37;;;;;;;;;1.67;1.67;;;;;13.04;92.08;100398.28;5072848;28;9295;-67
2022/12/31 11:09:52;;;;;;;;;2.00;2.00;;;;;13.10;91.79;100402.00;5073280;28;9140;-68
2022/12/31 11:12:52;;;;;;;;;1.00;1.00;;;;;13.00;91.46;100407.88;5026496;28;9207;-67
2022/12/31 11:15:21;;;;;;;;;1.00;1.00;;;;;12.97;91.53;100408.34;5073043;28;8998;-66
2022/12/31 11:17:57;;;;;;;;;2.00;2.00;;;;;12.99;91.25;100408.09;5074345;28;9154;-66
2022/12/31 11:20:38;;;;;;;;;2.67;1.00;;;;;13.06;90.92;100407.00;5074067;28;9157;-66
2022/12/31 11:23:25;;;;;;;;;1.00;1.00;;;;;13.05;90.96;100399.13;5073285;28;9183;-66
2022/12/31 11:26:28;;;;;;;;;3.00;1.00;;;;;13.03;91.12;100401.22;5072917;28;9246;-66
2022/12/31 11:29:06;;;;;;;;;1.00;1.00;;;;;12.98;91.78;100409.97;5072312;28;9134;-66
2022/12/31 11:31:51;;;;;;;;;3.00;1.00;;;;;12.96;92.00;100408.53;5074359;28;9975;-66
2022/12/31 11:34:36;;;;;;;;;3.00;3.00;;;;;12.97;92.20;100402.94;5074206;28;9378;-68
2022/12/31 11:37:11;;;;;;;;;2.00;1.00;;;;;13.01;92.40;100408.72;5075781;28;9286;-67
2022/12/31 11:40:18;;;;;;;;;2.00;2.00;;;;;12.93;92.48;100409.81;5076028;28;9221;-66
2022/12/31 11:42:56;;;;;;;;;1.00;1.00;;;;;12.91;92.93;100400.28;5072782;28;9391;-65
2022/12/31 11:45:51;;;;;;;;;0.00;0.00;;;;;12.85;92.91;100402.81;5072754;28;9186;-66
2022/12/31 11:48:49;;;;;;;;;1.00;1.00;;;;;12.90;92.92;100395.94;5072959;28;9166;-66
2022/12/31 11:51:34;;;;;;;;;1.00;1.00;;;;;12.87;93.02;100400.72;5072389;28;9113;-66
2022/12/31 11:54:28;;;;;;;;;1.33;1.00;;;;;12.86;92.78;100392.84;5072628;28;9323;-67
2022/12/31 11:57:37;;;;;;;;;4.33;1.00;;;;;12.85;92.93;100393.88;5072129;28;9177;-68
2022/12/31 12:00:23;;;;;;;;;0.00;0.00;;;;;12.89;93.00;100392.41;5072299;28;8993;-68
2022/12/31 12:02:58;;;;;;;;;0.00;0.00;;;;;12.91;93.06;100378.66;5072323;28;9080;-66
2022/12/31 12:05:25;;;;;;;;;0.67;0.67;;;;;12.90;92.88;100382.41;5071907;28;9178;-67
2022/12/31 12:07:53;;;;;;;;;0.00;0.00;;;;;12.82;93.28;100373.53;5071989;28;9144;-66
2022/12/31 12:10:24;;;;;;;;;1.33;1.33;;;;;12.86;93.44;100382.84;5072185;28;9034;-66
2022/12/31 12:12:59;;;;;;;;;1.00;0.00;;;;;12.88;93.23;100374.53;5072017;28;9050;-65
2022/12/31 12:15:32;;;;;;;;;0.00;0.00;;;;;12.87;93.60;100368.28;5071933;28;9136;-67